Time;durP1;ratioP1;P1;durP2;ratioP2;P2;SDS_P1;SDS_P2;PMS_P1;PMS_P2;Temp;Humidity;BMP_temperature;BMP_pressure;BME280_temperature;BME280_humidity;BME280_pressure;Samples;Min_cycle;Max_cycle;Signal;HPM_P1;HPM_P2
2022/08/02 00:00:19;;;;;;;5.32;1.92;;;14.60;99.90;;;;;;5054289;28;37264;-61
2022/08/02 00:02:48;;;;;;;6.00;1.92;;;14.50;99.90;;;;;;5054518;28;38686;-61
2022/08/02 00:05:16;;;;;;;9.18;2.40;;;14.50;99.90;;;;;;5054594;28;36645;-62
2022/08/02 00:07:44;;;;;;;6.18;2.00;;;14.50;99.90;;;;;;5055123;28;36669;-61
2022/08/02 00:10:12;;;;;;;5.53;2.00;;;14.50;99.90;;;;;;5053694;28;38455;-62
2022/08/02 00:12:40;;;;;;;9.25;2.40;;;14.40;99.90;;;;;;5051291;28;37700;-61
2022/08/02 00:15:09;;;;;;;6.93;2.60;;;14.40;99.90;;;;;;5053284;28;36157;-61
2022/08/02 00:17:36;;;;;;;13.18;2.63;;;14.40;99.90;;;;;;5053314;28;35372;-62
2022/08/02 00:20:04;;;;;;;11.15;2.65;;;14.40;99.90;;;;;;5053402;28;38314;-62
2022/08/02 00:22:33;;;;;;;9.70;2.72;;;14.40;99.90;;;;;;5052463;28;38756;-62
2022/08/02 00:25:00;;;;;;;8.50;2.53;;;14.40;99.90;;;;;;5048969;28;38044;-61
2022/08/02 00:27:27;;;;;;;5.30;2.30;;;14.40;99.90;;;;;;5052855;28;36656;-61
2022/08/02 00:29:55;;;;;;;8.45;2.63;;;14.50;99.90;;;;;;5052164;28;36394;-62
2022/08/02 00:32:23;;;;;;;11.05;3.03;;;14.50;99.90;;;;;;5053375;28;37936;-61
2022/08/02 00:34:50;;;;;;;6.45;2.47;;;14.60;99.90;;;;;;5053430;28;36912;-62
2022/08/02 00:37:18;;;;;;;7.90;2.67;;;14.70;99.90;;;;;;5052399;28;35265;-62
2022/08/02 00:39:46;;;;;;;7.85;2.63;;;14.80;99.90;;;;;;5054286;28;37920;-62
2022/08/02 00:42:15;;;;;;;9.88;2.67;;;14.80;99.90;;;;;;5050635;28;38049;-62
2022/08/02 00:44:42;;;;;;;9.98;3.20;;;14.90;99.90;;;;;;5054030;28;37427;-61
2022/08/02 00:47:10;;;;;;;10.18;3.20;;;14.90;99.90;;;;;;5054068;28;36517;-62
2022/08/02 00:49:37;;;;;;;8.13;3.30;;;14.90;99.90;;;;;;5053786;28;38074;-61
2022/08/02 00:52:05;;;;;;;9.38;3.17;;;14.90;99.90;;;;;;5053606;28;38096;-61
2022/08/02 00:54:33;;;;;;;12.02;3.53;;;14.90;99.90;;;;;;5053437;28;20193;-62
2022/08/02 00:57:02;;;;;;;14.73;3.42;;;14.90;99.90;;;;;;5052355;28;36404;-61
2022/08/02 00:59:29;;;;;;;12.52;3.10;;;14.90;99.90;;;;;;5051511;28;37247;-62
2022/08/02 01:01:57;;;;;;;18.25;5.10;;;14.80;99.90;;;;;;5054978;28;36719;-61
2022/08/02 01:04:24;;;;;;;9.85;3.33;;;14.90;99.90;;;;;;5053985;28;38638;-61
2022/08/02 01:06:51;;;;;;;10.60;3.45;;;14.80;99.90;;;;;;5054095;28;36707;-62
2022/08/02 01:09:19;;;;;;;8.20;2.80;;;14.80;99.90;;;;;;5052044;28;37967;-61
2022/08/02 01:11:46;;;;;;;8.98;2.63;;;14.80;99.90;;;;;;5052895;28;38262;-61
2022/08/02 01:14:15;;;;;;;12.00;3.20;;;14.80;99.90;;;;;;5052108;28;38601;-61
2022/08/02 01:16:50;;;;;;;8.07;2.97;;;14.70;99.90;;;;;;5053619;28;37755;-61
2022/08/02 01:19:34;;;;;;;8.15;2.80;;;14.70;99.90;;;;;;5052936;28;37392;-61
2022/08/02 01:22:22;;;;;;;7.68;2.85;;;14.60;99.90;;;;;;5052580;28;39437;-61
2022/08/02 01:25:11;;;;;;;8.23;2.63;;;14.50;99.90;;;;;;5041256;28;37696;-61
2022/08/02 01:27:51;;;;;;;10.93;3.42;;;14.40;99.90;;;;;;5051615;28;35365;-61
2022/08/02 01:30:20;;;;;;;8.48;2.60;;;14.30;99.90;;;;;;5052978;28;37344;-61
2022/08/02 01:32:53;;;;;;;7.65;2.78;;;14.20;99.90;;;;;;5053124;28;36307;-61
2022/08/02 01:35:26;;;;;;;7.65;2.28;;;14.10;99.90;;;;;;5052556;28;38929;-61
2022/08/02 01:37:57;;;;;;;8.77;3.35;;;14.00;99.90;;;;;;5052337;28;35433;-61
2022/08/02 01:40:30;;;;;;;8.02;3.22;;;14.00;99.90;;;;;;5052421;28;38692;-61
2022/08/02 01:42:59;;;;;;;12.50;2.95;;;14.00;99.90;;;;;;5051891;28;36390;-61
2022/08/02 01:45:32;;;;;;;7.82;3.00;;;14.00;99.90;;;;;;5053687;28;37794;-61
2022/08/02 01:48:01;;;;;;;10.32;3.22;;;13.90;99.90;;;;;;5052121;28;35499;-61
2022/08/02 01:50:32;;;;;;;6.63;2.80;;;13.90;99.90;;;;;;5053289;28;36124;-61
2022/08/02 01:53:03;;;;;;;7.35;2.75;;;13.90;99.90;;;;;;5051226;28;38198;-61
2022/08/02 01:55:37;;;;;;;8.60;3.25;;;13.90;99.90;;;;;;5053471;28;37144;-61
2022/08/02 01:58:07;;;;;;;6.47;3.05;;;14.00;99.90;;;;;;5051592;28;37847;-61
2022/08/02 02:00:39;;;;;;;10.60;2.70;;;14.00;99.90;;;;;;5053428;28;36265;-61
2022/08/02 02:03:12;;;;;;;8.55;2.03;;;13.90;99.90;;;;;;5051513;28;39169;-61
2022/08/02 02:05:40;;;;;;;11.98;3.20;;;14.00;99.90;;;;;;5052424;28;38727;-62
2022/08/02 02:08:09;;;;;;;17.02;3.45;;;13.90;99.90;;;;;;5049826;28;37195;-61
2022/08/02 02:10:39;;;;;;;8.73;2.55;;;14.00;99.90;;;;;;5051961;28;37555;-61
2022/08/02 02:13:09;;;;;;;9.15;2.50;;;14.00;99.90;;;;;;5052004;28;37858;-61
2022/08/02 02:15:43;;;;;;;10.82;2.67;;;14.00;99.90;;;;;;5053370;28;37375;-61
2022/08/02 02:18:14;;;;;;;11.10;3.17;;;14.00;99.90;;;;;;5051210;28;38923;-61
2022/08/02 02:20:42;;;;;;;7.40;2.13;;;14.00;99.90;;;;;;5056659;28;38237;-62
2022/08/02 02:23:10;;;;;;;5.93;2.50;;;14.00;99.90;;;;;;5054503;28;36531;-61
2022/08/02 02:25:40;;;;;;;9.75;2.75;;;14.00;99.90;;;;;;5056791;28;35845;-61
2022/08/02 02:28:11;;;;;;;12.65;2.95;;;14.00;99.90;;;;;;5055081;28;37430;-62
2022/08/02 02:30:49;;;;;;;9.07;2.63;;;14.10;99.90;;;;;;5054537;28;37255;-61
2022/08/02 02:33:18;;;;;;;5.90;2.20;;;14.10;99.90;;;;;;5056527;28;38667;-61
2022/08/02 02:35:49;;;;;;;12.45;3.15;;;14.10;99.90;;;;;;5056096;28;37303;-61
2022/08/02 02:38:20;;;;;;;6.63;2.65;;;14.10;99.90;;;;;;5055447;28;36987;-61
2022/08/02 02:40:48;;;;;;;12.25;3.42;;;14.10;99.90;;;;;;5055412;28;37530;-61
2022/08/02 02:43:18;;;;;;;11.32;2.85;;;14.10;99.90;;;;;;5055966;28;37872;-61
2022/08/02 02:45:47;;;;;;;9.75;2.60;;;14.20;99.90;;;;;;5054487;28;37171;-61
2022/08/02 02:48:17;;;;;;;9.27;2.75;;;14.20;99.90;;;;;;5055641;28;39290;-61
2022/08/02 02:50:45;;;;;;;9.93;3.00;;;14.30;99.90;;;;;;5055622;28;37451;-61
2022/08/02 02:53:13;;;;;;;8.18;2.65;;;14.30;99.90;;;;;;5053988;28;38494;-61
2022/08/02 02:55:43;;;;;;;7.20;3.25;;;14.30;99.90;;;;;;5055735;28;36310;-61
2022/08/02 02:58:11;;;;;;;8.90;2.67;;;14.30;99.90;;;;;;5055829;28;36974;-61
2022/08/02 03:03:26;;;;;;;11.45;2.65;;;14.40;99.90;;;;;;5054661;28;38546;-61
2022/08/02 03:05:53;;;;;;;6.88;2.33;;;14.40;99.90;;;;;;5054426;28;38732;-61
2022/08/02 03:08:21;;;;;;;7.93;2.72;;;14.40;99.90;;;;;;5053987;28;36397;-62
2022/08/02 03:10:48;;;;;;;6.68;2.92;;;14.40;99.90;;;;;;5054315;28;38446;-61
2022/08/02 03:13:17;;;;;;;8.90;2.45;;;14.40;99.90;;;;;;5053155;28;37627;-62
2022/08/02 03:15:46;;;;;;;10.02;2.50;;;14.40;99.90;;;;;;5054823;28;37246;-60
2022/08/02 03:18:33;;;;;;;7.65;3.10;;;14.40;99.90;;;;;;5053639;28;36526;-61
2022/08/02 03:21:01;;;;;;;8.85;2.72;;;14.40;99.90;;;;;;5054242;28;37951;-61
2022/08/02 03:23:29;;;;;;;12.57;2.92;;;14.40;99.90;;;;;;5055285;28;37576;-61
2022/08/02 03:25:57;;;;;;;12.30;2.60;;;14.50;99.90;;;;;;5054416;28;37869;-61
2022/08/02 03:28:24;;;;;;;6.57;2.30;;;14.40;99.90;;;;;;5054554;28;37002;-61
2022/08/02 03:30:52;;;;;;;9.68;2.83;;;14.50;99.90;;;;;;5054495;28;38409;-62
2022/08/02 03:33:20;;;;;;;8.82;2.63;;;14.50;99.90;;;;;;5054657;28;37832;-61
2022/08/02 03:35:50;;;;;;;7.38;2.55;;;14.50;99.90;;;;;;5053465;28;37521;-61
2022/08/02 03:38:19;;;;;;;9.95;2.80;;;14.50;99.90;;;;;;5053171;28;35437;-61
2022/08/02 03:40:48;;;;;;;9.02;2.63;;;14.50;99.90;;;;;;5053330;28;37856;-60
2022/08/02 03:43:16;;;;;;;9.55;2.67;;;14.50;99.90;;;;;;5054269;28;38634;-61
2022/08/02 03:45:46;;;;;;;9.85;2.45;;;14.50;99.90;;;;;;5053072;28;36641;-61
2022/08/02 03:48:15;;;;;;;10.77;2.95;;;14.50;99.90;;;;;;5053943;28;36710;-61
2022/08/02 03:50:43;;;;;;;9.85;2.78;;;14.50;99.90;;;;;;5053770;28;37792;-60
2022/08/02 03:53:13;;;;;;;11.05;3.90;;;14.50;99.90;;;;;;5053965;28;37344;-61
2022/08/02 03:55:41;;;;;;;10.93;3.13;;;14.50;99.90;;;;;;5052809;28;38598;-61
2022/08/02 03:58:08;;;;;;;8.05;3.60;;;14.50;99.90;;;;;;5054531;28;36349;-61
2022/08/02 04:00:36;;;;;;;8.20;2.58;;;14.50;99.90;;;;;;5055411;28;38161;-61
2022/08/02 04:03:03;;;;;;;8.85;2.90;;;14.50;99.90;;;;;;5055622;28;36610;-62
2022/08/02 04:05:30;;;;;;;10.20;3.40;;;14.50;99.90;;;;;;5055472;28;37049;-61
2022/08/02 04:07:57;;;;;;;11.35;3.15;;;14.50;99.90;;;;;;5054448;28;37658;-61
2022/08/02 04:10:26;;;;;;;14.00;3.78;;;14.60;99.90;;;;;;5053368;28;38854;-61
2022/08/02 04:12:55;;;;;;;8.82;2.97;;;14.60;99.90;;;;;;5053118;28;39160;-61
2022/08/02 04:15:23;;;;;;;9.63;3.17;;;14.60;99.90;;;;;;5053041;28;36096;-61
2022/08/02 04:17:55;;;;;;;9.00;3.30;;;14.60;99.90;;;;;;5053455;28;35203;-61
2022/08/02 04:20:31;;;;;;;9.65;3.22;;;14.70;99.90;;;;;;5054548;28;36238;-61
2022/08/02 04:23:01;;;;;;;7.65;2.88;;;14.70;99.90;;;;;;5053830;28;37595;-61
2022/08/02 04:25:31;;;;;;;11.75;3.75;;;14.70;99.90;;;;;;5052990;28;37388;-61
2022/08/02 04:28:00;;;;;;;8.93;3.60;;;14.80;99.90;;;;;;5054974;28;37665;-61
2022/08/02 04:30:29;;;;;;;14.07;3.42;;;14.80;99.90;;;;;;5053676;28;36782;-61
2022/08/02 04:32:57;;;;;;;7.93;3.83;;;14.80;99.90;;;;;;5055405;28;35428;-61
2022/08/02 04:35:24;;;;;;;12.43;4.65;;;14.80;99.90;;;;;;5053162;28;39035;-61
2022/08/02 04:37:53;;;;;;;10.20;3.45;;;14.80;99.90;;;;;;5054022;28;36652;-61
2022/08/02 04:40:20;;;;;;;9.98;3.08;;;14.90;99.90;;;;;;5053341;28;38968;-61
2022/08/02 04:42:49;;;;;;;12.70;3.25;;;14.90;99.90;;;;;;5053933;28;36353;-61
2022/08/02 04:45:17;;;;;;;10.50;3.88;;;14.90;99.90;;;;;;5053390;28;36159;-61
2022/08/02 04:47:44;;;;;;;10.70;3.80;;;15.00;99.90;;;;;;5054044;28;36691;-61
2022/08/02 04:50:12;;;;;;;7.75;3.25;;;15.00;99.90;;;;;;5054186;28;37573;-61
2022/08/02 04:52:39;;;;;;;8.02;3.10;;;15.10;99.90;;;;;;5052433;28;38556;-61
2022/08/02 04:55:07;;;;;;;11.95;3.90;;;15.20;99.90;;;;;;5051214;28;36041;-61
2022/08/02 05:00:22;;;;;;;10.52;3.60;;;15.30;99.90;;;;;;5052571;28;38672;-61
2022/08/02 05:02:50;;;;;;;11.95;3.30;;;15.50;99.90;;;;;;5053537;28;38282;-61
2022/08/02 05:05:18;;;;;;;12.07;3.70;;;15.50;99.90;;;;;;5053497;28;38513;-62
2022/08/02 05:07:45;;;;;;;11.75;3.28;;;15.60;99.90;;;;;;5052485;28;37389;-61
2022/08/02 05:10:13;;;;;;;10.32;3.60;;;15.70;99.90;;;;;;5051915;28;37401;-61
2022/08/02 05:12:40;;;;;;;8.88;3.00;;;15.80;99.90;;;;;;5051216;28;37744;-61
2022/08/02 05:15:09;;;;;;;8.07;2.90;;;15.90;99.90;;;;;;5052471;28;40043;-61
2022/08/02 05:17:38;;;;;;;10.05;3.10;;;16.00;99.90;;;;;;5051532;28;37452;-61
2022/08/02 05:20:06;;;;;;;12.45;3.40;;;16.10;99.90;;;;;;5052022;28;38274;-62
2022/08/02 05:22:33;;;;;;;12.73;3.88;;;16.20;99.90;;;;;;5052002;28;38645;-61
2022/08/02 05:25:00;;;;;;;10.68;3.20;;;16.20;99.90;;;;;;5051125;28;37267;-61
2022/08/02 05:27:28;;;;;;;14.63;3.53;;;16.30;99.90;;;;;;5052896;28;36613;-61
2022/08/02 05:29:57;;;;;;;8.68;3.20;;;16.40;99.90;;;;;;5052206;28;36269;-61
2022/08/02 05:32:24;;;;;;;7.20;3.15;;;16.60;99.90;;;;;;5051639;28;38324;-61
2022/08/02 05:34:53;;;;;;;8.70;3.17;;;16.60;99.90;;;;;;5051952;28;36940;-61
2022/08/02 05:37:20;;;;;;;11.38;3.70;;;16.80;99.90;;;;;;5045641;28;36337;-61
2022/08/02 05:39:47;;;;;;;11.07;2.92;;;16.90;99.90;;;;;;5052130;28;37460;-61
2022/08/02 05:42:14;;;;;;;11.25;3.75;;;17.00;99.90;;;;;;5048057;28;37689;-61
2022/08/02 05:44:42;;;;;;;8.93;2.70;;;17.10;99.90;;;;;;5052751;28;37547;-62
2022/08/02 05:47:09;;;;;;;8.50;2.88;;;17.20;99.90;;;;;;5049963;28;37390;-61
2022/08/02 05:49:36;;;;;;;8.13;2.42;;;17.30;99.90;;;;;;5053081;28;35175;-62
2022/08/02 05:52:14;;;;;;;7.82;2.70;;;17.30;99.90;;;;;;5050410;28;38845;-61
2022/08/02 05:54:49;;;;;;;11.38;2.85;;;17.40;99.90;;;;;;5057254;28;37247;-62
2022/08/02 05:57:30;;;;;;;9.43;3.00;;;17.60;99.90;;;;;;5060065;28;38908;-61
2022/08/02 06:00:06;;;;;;;7.25;2.10;;;17.70;99.90;;;;;;5059443;28;37705;-61
2022/08/02 06:02:46;;;;;;;11.15;3.17;;;17.90;99.70;;;;;;5057310;28;38419;-61
2022/08/02 06:05:16;;;;;;;11.00;2.63;;;18.00;99.60;;;;;;5057938;28;38050;-62
2022/08/02 06:07:46;;;;;;;10.00;3.55;;;18.10;99.70;;;;;;5058767;28;37746;-61
2022/08/02 06:10:16;;;;;;;10.98;2.53;;;18.20;99.70;;;;;;5056913;28;38560;-62
2022/08/02 06:12:48;;;;;;;9.15;2.60;;;18.20;99.70;;;;;;5056190;28;37802;-62
2022/08/02 06:15:17;;;;;;;10.52;2.38;;;18.30;99.20;;;;;;5058671;28;37714;-62
2022/08/02 06:17:45;;;;;;;9.00;2.33;;;18.30;99.40;;;;;;5057827;28;37669;-61
2022/08/02 06:20:14;;;;;;;8.50;2.33;;;18.30;99.30;;;;;;5058938;28;36306;-61
2022/08/02 06:22:45;;;;;;;11.25;2.63;;;18.30;99.40;;;;;;5057594;28;39074;-62
2022/08/02 06:25:14;;;;;;;8.50;2.00;;;18.30;99.30;;;;;;5055500;28;39127;-61
2022/08/02 06:27:42;;;;;;;8.45;2.50;;;18.40;99.40;;;;;;5057359;28;37852;-62
2022/08/02 06:30:10;;;;;;;8.55;2.60;;;18.40;99.50;;;;;;5056993;28;36833;-61
2022/08/02 06:32:38;;;;;;;5.57;2.08;;;18.40;99.20;;;;;;5058822;28;37173;-62
2022/08/02 06:35:06;;;;;;;8.13;2.42;;;18.50;99.30;;;;;;5055703;28;39307;-62
2022/08/02 06:37:38;;;;;;;5.80;2.05;;;18.50;99.10;;;;;;5054692;28;37083;-62
2022/08/02 06:40:14;;;;;;;8.10;2.35;;;18.50;99.00;;;;;;5055394;28;38300;-61
2022/08/02 06:42:48;;;;;;;8.70;2.40;;;18.60;99.10;;;;;;5055360;28;36312;-61
2022/08/02 06:45:16;;;;;;;10.38;2.58;;;18.60;99.10;;;;;;5053112;28;36126;-62
2022/08/02 06:47:44;;;;;;;6.00;1.95;;;18.50;99.20;;;;;;5054914;28;35921;-62
2022/08/02 06:50:11;;;;;;;7.22;2.85;;;18.50;99.40;;;;;;5055028;28;38252;-62
2022/08/02 06:52:39;;;;;;;12.77;2.63;;;18.50;99.40;;;;;;5053838;28;36578;-62
2022/08/02 06:55:09;;;;;;;7.55;2.13;;;18.60;99.30;;;;;;5052136;28;37155;-62
2022/08/02 06:57:36;;;;;;;6.20;2.10;;;18.70;99.40;;;;;;5055566;28;38403;-62
2022/08/02 07:00:08;;;;;;;9.23;2.00;;;18.70;99.50;;;;;;5054295;28;36362;-62
2022/08/02 07:02:36;;;;;;;6.50;1.60;;;18.70;99.60;;;;;;5053826;28;37819;-61
2022/08/02 07:05:04;;;;;;;8.80;1.80;;;18.80;99.60;;;;;;5051727;28;37998;-62
2022/08/02 07:07:31;;;;;;;6.63;1.67;;;18.80;99.60;;;;;;5051983;28;37053;-61
2022/08/02 07:09:59;;;;;;;9.82;1.90;;;18.90;99.70;;;;;;5051524;28;38702;-62
2022/08/02 07:12:30;;;;;;;5.70;1.73;;;18.90;99.70;;;;;;5046500;28;37539;-62
2022/08/02 07:14:57;;;;;;;6.05;1.60;;;18.90;99.30;;;;;;5025717;28;36819;-62
2022/08/02 07:17:24;;;;;;;10.93;1.85;;;19.00;99.40;;;;;;5021066;28;37683;-62
2022/08/02 07:19:52;;;;;;;6.05;1.90;;;19.00;99.40;;;;;;5019944;28;36334;-62
2022/08/02 07:22:22;;;;;;;6.07;1.77;;;19.00;99.10;;;;;;5021884;28;38211;-62
2022/08/02 07:24:49;;;;;;;5.75;1.83;;;19.00;99.20;;;;;;5019939;28;37902;-62
2022/08/02 07:27:16;;;;;;;10.13;1.80;;;19.00;99.20;;;;;;5020488;28;36742;-62
2022/08/02 07:29:45;;;;;;;6.15;1.80;;;19.10;99.30;;;;;;5021568;28;37860;-62
2022/08/02 07:32:13;;;;;;;6.15;1.60;;;19.10;99.40;;;;;;5022027;28;37600;-62
2022/08/02 07:34:40;;;;;;;4.55;1.55;;;19.20;99.10;;;;;;5019925;28;37752;-62
2022/08/02 07:37:08;;;;;;;4.60;1.20;;;19.30;98.90;;;;;;5019011;28;37425;-63
2022/08/02 07:39:36;;;;;;;4.75;1.48;;;19.30;97.60;;;;;;5020826;28;38114;-61
2022/08/02 07:42:03;;;;;;;6.13;1.30;;;19.40;97.20;;;;;;5020916;28;37939;-62
2022/08/02 07:44:33;;;;;;;6.03;1.60;;;19.50;97.20;;;;;;5020432;28;35899;-62
2022/08/02 07:47:02;;;;;;;9.32;1.60;;;19.50;97.60;;;;;;5025447;28;37220;-61
2022/08/02 07:49:30;;;;;;;4.65;1.30;;;19.60;96.80;;;;;;5024814;28;38496;-62
2022/08/02 07:51:57;;;;;;;3.15;1.10;;;19.70;95.80;;;;;;5025626;28;40229;-62
2022/08/02 07:54:25;;;;;;;20.58;2.95;;;19.70;95.80;;;;;;5022114;28;36373;-63
2022/08/02 07:56:53;;;;;;;8.98;1.30;;;19.80;95.80;;;;;;5020794;28;36700;-62
2022/08/02 07:59:20;;;;;;;19.88;2.05;;;19.90;95.80;;;;;;5022145;28;37341;-62
2022/08/02 08:01:48;;;;;;;4.22;1.38;;;19.90;96.20;;;;;;5019908;28;38346;-62
2022/08/02 08:04:17;;;;;;;5.63;1.38;;;20.00;96.50;;;;;;5021474;28;36056;-62
2022/08/02 08:06:45;;;;;;;2.42;1.05;;;20.10;95.70;;;;;;5018925;28;35241;-63
2022/08/02 08:09:13;;;;;;;5.38;1.10;;;20.20;95.30;;;;;;5020000;28;38048;-63
2022/08/02 08:11:40;;;;;;;2.10;0.80;;;20.20;94.70;;;;;;5020734;28;37828;-62
2022/08/02 08:14:07;;;;;;;2.78;1.05;;;20.20;94.20;;;;;;5024363;28;38237;-62
2022/08/02 08:16:34;;;;;;;3.58;0.93;;;20.30;93.40;;;;;;5029894;28;36172;-62
2022/08/02 08:19:02;;;;;;;2.35;0.73;;;20.30;93.00;;;;;;5033425;28;37394;-62
2022/08/02 08:21:33;;;;;;;5.55;1.13;;;20.40;93.70;;;;;;5032541;28;37741;-62
2022/08/02 08:24:00;;;;;;;2.95;0.98;;;20.50;93.70;;;;;;5030807;28;37839;-62
2022/08/02 08:26:28;;;;;;;3.80;1.40;;;20.50;93.70;;;;;;5033164;28;36677;-62
2022/08/02 08:28:55;;;;;;;3.78;1.10;;;20.60;93.00;;;;;;5034599;28;38149;-62
2022/08/02 08:31:22;;;;;;;4.85;1.42;;;20.70;92.30;;;;;;5034148;28;37020;-62
2022/08/02 08:33:50;;;;;;;2.90;0.80;;;20.70;91.20;;;;;;5035046;28;36589;-62
2022/08/02 08:36:17;;;;;;;3.65;0.93;;;20.80;90.70;;;;;;5035357;28;35470;-62
2022/08/02 08:38:45;;;;;;;3.00;1.20;;;20.90;90.60;;;;;;5032501;28;37922;-62
2022/08/02 08:41:15;;;;;;;3.85;0.98;;;20.90;90.40;;;;;;5034302;28;37346;-62
2022/08/02 08:43:43;;;;;;;6.32;0.90;;;21.00;90.10;;;;;;5034820;28;37443;-63
2022/08/02 08:46:11;;;;;;;4.32;1.35;;;21.10;89.40;;;;;;5034406;28;37724;-62
2022/08/02 08:48:43;;;;;;;2.55;1.00;;;21.10;88.50;;;;;;5034706;28;35442;-63
2022/08/02 08:51:14;;;;;;;4.20;1.30;;;21.20;89.50;;;;;;5034290;28;36444;-62
2022/08/02 08:53:47;;;;;;;3.30;0.77;;;21.30;90.10;;;;;;5033822;28;37439;-62
2022/08/02 08:56:16;;;;;;;5.93;0.98;;;21.30;90.10;;;;;;5033669;28;37114;-62
2022/08/02 08:58:43;;;;;;;2.30;0.73;;;21.50;90.20;;;;;;5033122;28;38069;-63
2022/08/02 09:01:13;;;;;;;3.67;1.15;;;21.60;90.10;;;;;;5033537;28;36230;-62
2022/08/02 09:03:40;;;;;;;2.65;0.90;;;21.70;88.30;;;;;;5034245;28;38794;-62
2022/08/02 09:06:07;;;;;;;2.10;0.85;;;21.80;87.20;;;;;;5033020;28;35300;-63
2022/08/02 09:08:35;;;;;;;2.50;0.88;;;21.90;83.90;;;;;;5034295;28;37730;-63
2022/08/02 09:11:12;;;;;;;3.92;1.00;;;22.00;85.70;;;;;;5033247;28;38690;-63
2022/08/02 09:13:50;;;;;;;3.15;1.15;;;22.10;86.10;;;;;;5038604;28;37207;-62
2022/08/02 09:16:29;;;;;;;3.80;1.02;;;22.20;87.60;;;;;;5054010;28;37043;-62
2022/08/02 09:18:58;;;;;;;3.15;1.00;;;22.20;88.80;;;;;;5053428;28;37725;-62
2022/08/02 09:21:34;;;;;;;3.25;1.00;;;22.30;89.50;;;;;;5053603;28;37297;-62
2022/08/02 09:24:02;;;;;;;3.10;1.10;;;22.40;88.40;;;;;;5053652;28;38292;-62
2022/08/02 09:26:33;;;;;;;3.60;1.10;;;22.50;88.40;;;;;;5053043;28;35384;-62
2022/08/02 09:29:02;;;;;;;4.63;1.10;;;22.60;88.20;;;;;;5054273;28;36181;-62
2022/08/02 09:31:29;;;;;;;2.55;0.90;;;22.70;88.10;;;;;;5054020;28;37787;-63
2022/08/02 09:33:58;;;;;;;3.80;1.10;;;22.70;88.70;;;;;;5052814;28;36971;-63
2022/08/02 09:36:27;;;;;;;2.13;0.98;;;22.80;88.40;;;;;;5053223;28;35528;-62
2022/08/02 09:38:56;;;;;;;4.95;1.38;;;22.90;89.10;;;;;;5053104;28;37139;-63
2022/08/02 09:41:25;;;;;;;5.10;1.73;;;22.90;89.40;;;;;;5051903;28;38440;-63
2022/08/02 09:43:55;;;;;;;7.47;1.45;;;23.00;89.30;;;;;;5052824;28;38009;-63
2022/08/02 09:46:24;;;;;;;3.38;1.20;;;23.00;89.10;;;;;;5053719;28;36740;-62
2022/08/02 09:48:53;;;;;;;3.88;1.10;;;23.00;89.60;;;;;;5054440;28;37548;-62
2022/08/02 09:51:22;;;;;;;3.72;1.00;;;23.00;90.20;;;;;;5053950;28;37619;-62
2022/08/02 09:53:52;;;;;;;5.15;1.35;;;23.00;89.00;;;;;;5053702;28;38249;-62
2022/08/02 09:56:21;;;;;;;4.20;1.27;;;23.00;90.10;;;;;;5053492;28;39426;-62
2022/08/02 09:58:51;;;;;;;8.73;1.10;;;23.10;90.00;;;;;;5053702;28;37568;-62
2022/08/02 10:01:20;;;;;;;6.18;1.40;;;23.20;89.50;;;;;;5052553;28;37476;-62
2022/08/02 10:03:55;;;;;;;3.17;1.33;;;23.30;89.20;;;;;;5053481;28;41121;-63
2022/08/02 10:06:23;;;;;;;5.07;1.38;;;23.30;88.80;;;;;;5053018;28;36395;-62
2022/08/02 10:08:52;;;;;;;4.22;1.30;;;23.50;90.40;;;;;;5053345;28;37659;-63
2022/08/02 10:11:20;;;;;;;4.35;1.30;;;23.50;90.40;;;;;;5049907;28;37972;-62
2022/08/02 10:13:50;;;;;;;6.32;2.00;;;23.40;90.00;;;;;;5050939;28;37542;-62
2022/08/02 10:16:22;;;;;;;5.18;1.20;;;23.30;90.70;;;;;;5053246;28;36330;-62
2022/08/02 10:18:50;;;;;;;4.43;1.52;;;23.30;91.20;;;;;;5053040;28;37630;-62
2022/08/02 10:21:22;;;;;;;5.78;1.50;;;23.30;91.30;;;;;;5053009;28;37800;-62
2022/08/02 10:23:51;;;;;;;6.85;1.90;;;23.30;91.90;;;;;;5053939;28;39334;-63
2022/08/02 10:26:20;;;;;;;3.80;1.55;;;23.30;92.40;;;;;;5052818;28;36335;-62
2022/08/02 10:28:49;;;;;;;5.57;1.90;;;23.50;93.30;;;;;;5053722;28;38523;-62
2022/08/02 10:31:23;;;;;;;4.82;2.28;;;23.50;93.80;;;;;;5053792;28;38463;-62
2022/08/02 10:33:53;;;;;;;6.68;2.05;;;23.60;93.90;;;;;;5051665;28;36976;-62
2022/08/02 10:36:25;;;;;;;6.90;1.88;;;23.70;93.40;;;;;;5052579;28;36340;-62
2022/08/02 10:38:57;;;;;;;4.68;1.83;;;23.70;93.90;;;;;;5053084;28;37801;-62
2022/08/02 10:41:45;;;;;;;7.43;3.22;;;23.70;94.20;;;;;;5053996;28;38132;-62
2022/08/02 10:44:23;;;;;;;8.35;2.30;;;23.70;93.30;;;;;;5056131;28;39714;-62
2022/08/02 10:46:52;;;;;;;6.35;2.20;;;23.80;93.80;;;;;;5053363;28;35185;-62
2022/08/02 10:49:21;;;;;;;5.97;1.80;;;23.80;93.90;;;;;;5054241;28;37815;-62
2022/08/02 10:52:09;;;;;;;4.28;1.90;;;23.90;94.90;;;;;;5053642;28;38109;-62
2022/08/02 10:54:38;;;;;;;4.50;2.10;;;24.00;95.00;;;;;;5053319;28;38168;-62
2022/08/02 10:57:21;;;;;;;5.68;2.00;;;24.20;95.20;;;;;;5049379;28;36980;-62
2022/08/02 10:59:49;;;;;;;6.05;2.40;;;24.20;94.70;;;;;;5052470;28;37703;-63
2022/08/02 11:02:37;;;;;;;6.63;2.42;;;24.20;94.50;;;;;;5051860;28;38604;-63
2022/08/02 11:05:08;;;;;;;5.05;2.15;;;24.20;94.40;;;;;;5055312;28;36146;-63
2022/08/02 11:07:37;;;;;;;5.63;1.92;;;24.00;94.00;;;;;;5054309;28;35274;-62
2022/08/02 11:10:31;;;;;;;7.18;2.25;;;23.90;94.20;;;;;;5053663;28;37448;-63
2022/08/02 11:13:00;;;;;;;3.65;1.58;;;23.80;94.30;;;;;;5053244;28;37021;-62
2022/08/02 11:15:28;;;;;;;6.65;1.98;;;23.80;94.40;;;;;;5024552;28;40315;-62
2022/08/02 11:17:58;;;;;;;4.65;1.95;;;23.70;94.60;;;;;;5021816;28;36215;-63
2022/08/02 11:20:26;;;;;;;5.72;2.20;;;23.60;94.60;;;;;;5031549;28;37280;-62
2022/08/02 11:23:15;;;;;;;6.55;2.15;;;23.60;95.00;;;;;;5029767;28;39104;-62
2022/08/02 11:25:42;;;;;;;5.38;2.00;;;23.50;95.00;;;;;;5025026;28;37148;-62
2022/08/02 11:28:12;;;;;;;5.07;2.08;;;23.50;95.10;;;;;;5024089;28;36378;-63
2022/08/02 11:30:39;;;;;;;4.80;2.00;;;23.50;95.70;;;;;;5024810;28;37323;-62
2022/08/02 11:33:08;;;;;;;3.72;1.83;;;23.60;95.50;;;;;;5024807;28;37676;-63
2022/08/02 11:35:37;;;;;;;6.18;2.25;;;23.70;95.50;;;;;;5027992;28;38694;-62
2022/08/02 11:38:16;;;;;;;4.03;1.70;;;23.70;95.60;;;;;;5024815;28;36522;-63
2022/08/02 11:40:44;;;;;;;4.57;1.92;;;23.70;95.30;;;;;;5025466;28;36232;-62
2022/08/02 11:43:19;;;;;;;7.03;1.95;;;23.70;95.60;;;;;;5027685;28;37027;-62
2022/08/02 11:45:47;;;;;;;11.98;2.40;;;23.70;95.80;;;;;;5028004;28;36104;-62
2022/08/02 11:48:29;;;;;;;6.22;2.20;;;23.70;96.10;;;;;;5029122;28;36599;-63
2022/08/02 11:51:04;;;;;;;4.82;2.42;;;23.70;96.30;;;;;;5025182;28;38963;-62
2022/08/02 11:53:41;;;;;;;5.68;2.28;;;23.80;96.00;;;;;;5023130;28;37517;-63
2022/08/02 11:56:08;;;;;;;6.88;3.05;;;23.90;96.00;;;;;;5027728;28;37189;-63
2022/08/02 11:58:36;;;;;;;6.18;2.47;;;23.90;96.20;;;;;;5021769;28;36219;-62
2022/08/02 12:01:05;;;;;;;3.08;1.75;;;24.00;96.80;;;;;;5024719;28;40148;-62
2022/08/02 12:03:36;;;;;;;4.70;2.00;;;24.00;96.50;;;;;;5025313;28;38457;-62
2022/08/02 12:06:05;;;;;;;8.15;2.88;;;24.00;95.60;;;;;;5028843;28;37385;-62
2022/08/02 12:08:33;;;;;;;5.70;3.47;;;23.90;95.70;;;;;;5027764;28;36496;-62
2022/08/02 12:11:02;;;;;;;8.35;3.97;;;23.90;95.80;;;;;;5023683;28;37716;-62
2022/08/02 12:13:42;;;;;;;7.03;3.97;;;23.80;96.30;;;;;;5025256;28;38785;-62
2022/08/02 12:21:41;;;;;;;8.40;3.47;;;23.60;97.40;;;;;;5031718;28;39906;-63
2022/08/02 12:24:09;;;;;;;4.95;2.60;;;23.50;97.30;;;;;;5030974;28;38652;-62
2022/08/02 12:26:43;;;;;;;10.13;3.03;;;23.50;97.40;;;;;;5029652;28;37498;-62
2022/08/02 12:29:11;;;;;;;8.40;2.70;;;23.40;97.50;;;;;;5032151;28;36561;-62
2022/08/02 12:31:44;;;;;;;6.65;2.58;;;23.40;97.60;;;;;;5032586;28;37433;-62
2022/08/02 12:34:16;;;;;;;4.03;2.00;;;23.40;97.10;;;;;;5033773;28;39325;-62
2022/08/02 12:36:44;;;;;;;6.43;2.28;;;23.30;97.10;;;;;;5028210;28;39201;-62
2022/08/02 12:39:13;;;;;;;5.65;2.63;;;23.30;96.90;;;;;;5033057;28;36179;-62
2022/08/02 12:41:41;;;;;;;6.53;2.35;;;23.30;97.00;;;;;;5029200;28;37386;-62
2022/08/02 12:44:16;;;;;;;6.82;2.92;;;23.20;97.10;;;;;;5031139;28;37837;-63
2022/08/02 12:46:57;;;;;;;10.40;3.75;;;23.10;97.10;;;;;;5034090;28;38404;-62
2022/08/02 12:49:26;;;;;;;7.32;3.35;;;23.10;97.50;;;;;;5033611;28;35473;-62
2022/08/02 12:51:54;;;;;;;7.25;3.08;;;23.00;97.90;;;;;;5032869;28;36219;-62
2022/08/02 12:54:23;;;;;;;5.65;3.47;;;23.00;98.70;;;;;;5034217;28;37333;-62
2022/08/02 12:56:51;;;;;;;6.35;3.15;;;22.90;99.40;;;;;;5031785;28;36347;-63
2022/08/02 12:59:34;;;;;;;7.78;3.63;;;22.90;99.70;;;;;;5032002;28;35935;-62
2022/08/02 13:02:03;;;;;;;6.95;3.30;;;22.90;99.90;;;;;;5032257;28;37877;-62
2022/08/02 13:04:32;;;;;;;7.03;3.20;;;22.80;99.90;;;;;;5034038;28;36481;-62
2022/08/02 13:07:00;;;;;;;10.60;3.50;;;22.80;99.40;;;;;;5033502;28;37179;-62
2022/08/02 13:09:28;;;;;;;7.57;3.38;;;22.80;99.00;;;;;;5033155;28;37916;-62